Terminal Aerodrome Forecast
Issued by NWS

Home | Current Version | Previous Version | Text Only | Print | Product List | Glossary On
Versions: 1 2 3 4 5 6 7 8 9 10 11 12 13 14 15 16 17 18 19 20 21 22 23 24 25 26 27 28
000
FTUS42 KJAX 281120
TAFVQQ
TAF
KVQQ 281120Z 2812/2912 07006KT P6SM VCSH SCT020 BKN030 OVC070
      TEMPO 2812/2816 5SM -SHRA BR BKN025
     FM281600 07011G18KT P6SM VCSH SCT030 BKN060 OVC200
     FM290300 10006KT P6SM VCSH SCT020 SCT060 BKN200 PROB30
      2906/2912 3SM +TSRA BR BKN025CB OVC100=

USA.gov is the U.S. government's official web portal to all federal, state and local government web resources and services.